Time;durP1;ratioP1;P1;durP2;ratioP2;P2;SDS_P1;SDS_P2;PMS_P1;PMS_P2;Temp;Humidity;BMP_temperature;BMP_pressure;BME280_temperature;BME280_humidity;BME280_pressure;Samples;Min_cycle;Max_cycle;Signal;HPM_P1;HPM_P2
2021/03/21 00:00:29;;;;;;;12.02;5.38;;;7.20;91.00;;;;;;5053184;28;20369;-76
2021/03/21 00:02:54;;;;;;;11.40;6.40;;;7.20;91.00;;;;;;5053518;28;20469;-77
2021/03/21 00:05:20;;;;;;;12.57;7.15;;;7.20;91.10;;;;;;5053721;28;20104;-76
2021/03/21 00:07:45;;;;;;;14.55;7.65;;;7.20;91.00;;;;;;5058791;28;20051;-76
2021/03/21 00:10:12;;;;;;;10.95;6.35;;;7.20;91.00;;;;;;5089470;28;20066;-76
2021/03/21 00:12:37;;;;;;;13.70;7.28;;;7.10;90.80;;;;;;5088623;28;20033;-77
2021/03/21 00:15:05;;;;;;;9.63;6.07;;;7.10;90.90;;;;;;5089115;28;20023;-77
2021/03/21 00:17:32;;;;;;;15.75;8.63;;;7.10;91.00;;;;;;5055460;28;20099;-77
2021/03/21 00:19:57;;;;;;;13.15;7.88;;;7.10;91.00;;;;;;5073371;28;20449;-77
2021/03/21 00:22:23;;;;;;;13.60;7.60;;;7.20;91.20;;;;;;5073066;28;20038;-77
2021/03/21 00:24:48;;;;;;;13.85;8.18;;;7.10;91.10;;;;;;5088999;28;20440;-78
2021/03/21 00:27:14;;;;;;;12.68;7.65;;;7.10;91.10;;;;;;5073088;28;20063;-78
2021/03/21 00:29:41;;;;;;;13.13;8.23;;;7.10;91.10;;;;;;5073264;28;20032;-77
2021/03/21 00:32:07;;;;;;;14.80;8.38;;;7.10;91.20;;;;;;5055402;28;20066;-79
2021/03/21 00:34:33;;;;;;;11.55;7.65;;;7.10;91.20;;;;;;5073285;28;20024;-78
2021/03/21 00:36:58;;;;;;;14.63;7.85;;;7.00;91.10;;;;;;5073266;28;20050;-78
2021/03/21 00:39:24;;;;;;;12.68;7.75;;;7.10;91.20;;;;;;5073109;28;20024;-79
2021/03/21 00:41:49;;;;;;;14.10;9.18;;;7.00;91.00;;;;;;5088607;28;20453;-78
2021/03/21 00:44:15;;;;;;;13.90;8.65;;;7.00;91.20;;;;;;5088558;28;20066;-77
2021/03/21 00:46:40;;;;;;;11.27;7.55;;;7.00;91.20;;;;;;5072582;28;20025;-77
2021/03/21 00:49:07;;;;;;;11.25;8.13;;;7.00;91.20;;;;;;5088863;28;20077;-77
2021/03/21 00:51:32;;;;;;;11.18;7.45;;;7.00;91.30;;;;;;5074537;28;20028;-77
2021/03/21 00:53:58;;;;;;;12.65;7.95;;;7.00;91.30;;;;;;5075458;28;20101;-78
2021/03/21 00:56:37;;;;;;;11.50;6.72;;;7.00;91.30;;;;;;5088697;28;20016;-77
2021/03/21 00:59:04;;;;;;;10.38;6.70;;;7.00;91.30;;;;;;5055713;28;20512;-77
2021/03/21 01:01:30;;;;;;;9.38;5.90;;;6.90;91.60;;;;;;5076204;28;20020;-77
2021/03/21 01:03:57;;;;;;;9.55;6.03;;;6.90;91.20;;;;;;5056172;28;20435;-78
2021/03/21 01:06:22;;;;;;;11.60;7.38;;;6.90;91.20;;;;;;5073105;28;20106;-77
2021/03/21 01:08:56;;;;;;;10.27;6.47;;;6.90;91.20;;;;;;5087975;28;20075;-78
2021/03/21 01:11:30;;;;;;;7.90;5.43;;;6.90;91.20;;;;;;5054428;28;20420;-78
2021/03/21 01:13:56;;;;;;;9.30;5.40;;;6.90;91.20;;;;;;5054528;28;20021;-77
2021/03/21 01:16:25;;;;;;;8.63;4.85;;;6.90;91.60;;;;;;5072400;28;20100;-77
2021/03/21 01:18:52;;;;;;;7.50;4.85;;;6.90;91.30;;;;;;5072408;28;20047;-77
2021/03/21 01:21:19;;;;;;;8.23;4.40;;;7.00;91.30;;;;;;5054314;28;20025;-77
2021/03/21 01:23:45;;;;;;;6.75;3.60;;;7.00;91.30;;;;;;5054033;28;20037;-77
2021/03/21 01:26:16;;;;;;;7.15;4.10;;;7.00;91.20;;;;;;5054272;28;20109;-77
2021/03/21 01:28:42;;;;;;;5.72;3.67;;;7.00;91.10;;;;;;5053878;28;20020;-77
2021/03/21 01:31:12;;;;;;;6.07;3.90;;;7.00;91.10;;;;;;5054095;28;20111;-77
2021/03/21 01:33:38;;;;;;;7.13;4.18;;;7.00;91.10;;;;;;5072135;28;20041;-76
2021/03/21 01:36:09;;;;;;;6.30;3.83;;;7.00;91.00;;;;;;5071836;28;20051;-76
2021/03/21 01:38:34;;;;;;;7.13;2.75;;;6.90;91.10;;;;;;5053791;28;20017;-76
2021/03/21 01:41:04;;;;;;;6.35;2.70;;;6.90;91.20;;;;;;5072217;28;20354;-77
2021/03/21 01:43:38;;;;;;;5.60;2.85;;;6.90;91.30;;;;;;5053890;28;20016;-77
2021/03/21 01:46:05;;;;;;;5.43;3.35;;;6.80;91.30;;;;;;5072269;28;20363;-78
2021/03/21 01:48:45;;;;;;;6.45;2.72;;;6.90;91.30;;;;;;5071923;28;20449;-78
2021/03/21 01:51:26;;;;;;;3.92;2.42;;;6.80;91.30;;;;;;5054000;28;20342;-77
2021/03/21 01:53:57;;;;;;;5.68;3.00;;;6.80;91.40;;;;;;5054103;28;20032;-77
2021/03/21 01:56:25;;;;;;;5.93;3.00;;;6.80;91.50;;;;;;5072023;28;20098;-78
2021/03/21 01:58:58;;;;;;;4.25;2.50;;;6.80;91.40;;;;;;5053925;28;20013;-78
2021/03/21 02:01:27;;;;;;;5.35;2.55;;;6.80;91.40;;;;;;5053590;28;20025;-78
2021/03/21 02:03:53;;;;;;;6.43;2.20;;;6.80;91.40;;;;;;5053986;28;20483;-78
2021/03/21 02:06:29;;;;;;;5.10;2.90;;;6.80;91.40;;;;;;5087477;28;20279;-77
2021/03/21 02:09:14;;;;;;;6.05;2.72;;;6.80;91.40;;;;;;5053555;28;20408;-77
2021/03/21 02:12:04;;;;;;;4.53;2.50;;;6.80;91.40;;;;;;5072924;28;20476;-77
2021/03/21 02:14:39;;;;;;;6.38;2.78;;;6.80;91.50;;;;;;5057651;28;20025;-77
2021/03/21 02:17:29;;;;;;;4.18;2.35;;;6.80;91.50;;;;;;5057407;28;20111;-77
2021/03/21 02:20:20;;;;;;;5.43;2.97;;;6.80;91.40;;;;;;5075798;28;20023;-77
2021/03/21 02:22:52;;;;;;;6.05;3.00;;;6.80;91.40;;;;;;5057435;28;20346;-76
2021/03/21 02:26:04;;;;;;;5.93;3.40;;;6.80;91.50;;;;;;5057799;28;20353;-77
2021/03/21 02:28:57;;;;;;;4.43;2.83;;;6.80;91.50;;;;;;5035197;28;20056;-75
2021/03/21 02:31:38;;;;;;;5.22;3.47;;;6.80;91.50;;;;;;5076043;28;20052;-77
2021/03/21 02:34:09;;;;;;;6.35;4.00;;;6.80;91.60;;;;;;5057545;28;20024;-76
2021/03/21 02:36:51;;;;;;;5.07;3.58;;;6.80;91.50;;;;;;5075280;28;20020;-76
2021/03/21 02:39:21;;;;;;;7.10;4.43;;;6.80;91.50;;;;;;5057409;28;20016;-77
2021/03/21 02:41:55;;;;;;;8.13;4.53;;;6.80;91.50;;;;;;5057151;28;20028;-77
2021/03/21 02:44:26;;;;;;;7.00;4.60;;;6.80;91.60;;;;;;5057333;28;20125;-77
2021/03/21 02:46:58;;;;;;;7.47;5.22;;;6.80;91.50;;;;;;5056909;28;20017;-77
2021/03/21 02:49:43;;;;;;;8.88;6.18;;;6.80;91.80;;;;;;5057236;28;20111;-75
2021/03/21 02:52:14;;;;;;;7.72;5.43;;;6.80;91.70;;;;;;5075192;28;20020;-78
2021/03/21 02:55:05;;;;;;;7.57;4.88;;;6.80;91.70;;;;;;5056871;28;20046;-78
2021/03/21 02:57:37;;;;;;;7.85;4.82;;;6.80;91.80;;;;;;5056897;28;20024;-77
2021/03/21 03:00:06;;;;;;;8.73;6.05;;;6.80;91.70;;;;;;5075069;28;20048;-76
2021/03/21 03:02:44;;;;;;;9.05;6.40;;;6.80;91.80;;;;;;5057355;28;20012;-77
2021/03/21 03:05:13;;;;;;;9.02;6.10;;;6.80;91.80;;;;;;5057103;28;20016;-77
2021/03/21 03:07:45;;;;;;;9.15;6.03;;;6.80;91.90;;;;;;5056363;28;20049;-78
2021/03/21 03:10:16;;;;;;;8.40;6.30;;;6.80;91.80;;;;;;5074512;28;20047;-78
2021/03/21 03:12:49;;;;;;;12.13;6.80;;;6.80;91.80;;;;;;5075378;28;20024;-77
2021/03/21 03:15:17;;;;;;;8.63;6.28;;;6.80;91.90;;;;;;5056721;28;20013;-77
2021/03/21 03:18:11;;;;;;;11.13;6.85;;;6.90;91.80;;;;;;5074359;28;20530;-77
2021/03/21 03:20:52;;;;;;;11.45;7.47;;;6.80;91.90;;;;;;5056357;28;20065;-77
2021/03/21 03:23:24;;;;;;;9.30;6.57;;;6.90;92.10;;;;;;5055330;28;20051;-77
2021/03/21 03:26:00;;;;;;;10.93;7.50;;;6.90;92.10;;;;;;5074553;28;20028;-77
2021/03/21 03:28:36;;;;;;;11.98;7.68;;;6.90;92.10;;;;;;5056622;28;20115;-77
2021/03/21 03:31:15;;;;;;;10.13;6.60;;;6.90;92.10;;;;;;5056545;28;20035;-76
2021/03/21 03:33:42;;;;;;;9.35;6.35;;;6.90;92.10;;;;;;5074424;28;20364;-76
2021/03/21 03:36:11;;;;;;;11.93;7.55;;;6.80;92.30;;;;;;5074402;28;20088;-76
2021/03/21 03:38:39;;;;;;;10.82;7.57;;;6.90;92.20;;;;;;5056552;28;20017;-77
2021/03/21 03:41:44;;;;;;;13.02;9.15;;;6.90;92.20;;;;;;5057134;28;20029;-77
2021/03/21 03:44:40;;;;;;;13.57;9.38;;;6.90;92.30;;;;;;5065236;28;20025;-77
2021/03/21 03:47:31;;;;;;;15.85;9.70;;;6.90;92.30;;;;;;5056509;28;20023;-78
2021/03/21 03:50:06;;;;;;;13.20;9.60;;;6.90;92.30;;;;;;5073681;28;20021;-78
2021/03/21 03:52:53;;;;;;;13.20;9.55;;;7.00;92.20;;;;;;5055946;28;20025;-77
2021/03/21 03:55:28;;;;;;;14.77;9.93;;;6.90;92.30;;;;;;5056256;28;20025;-77
2021/03/21 03:58:07;;;;;;;16.35;11.48;;;7.00;92.30;;;;;;5075275;28;20091;-76
2021/03/21 04:00:39;;;;;;;15.38;10.70;;;7.00;92.40;;;;;;5074626;28;20021;-77
2021/03/21 04:03:29;;;;;;;14.40;10.75;;;7.00;92.50;;;;;;5056273;28;20031;-76
2021/03/21 04:06:00;;;;;;;17.00;11.73;;;7.00;92.40;;;;;;5073692;28;20078;-76
2021/03/21 04:08:39;;;;;;;13.98;9.90;;;7.00;92.40;;;;;;5074378;28;20041;-76
2021/03/21 04:11:26;;;;;;;15.35;11.40;;;7.00;92.50;;;;;;5074011;28;20031;-76
2021/03/21 04:13:57;;;;;;;11.35;7.90;;;7.00;92.40;;;;;;5074324;28;20021;-76
2021/03/21 04:16:28;;;;;;;15.55;10.90;;;7.00;92.30;;;;;;5074501;28;20027;-76
2021/03/21 04:19:07;;;;;;;17.48;11.05;;;7.00;92.40;;;;;;5055689;28;20027;-76
2021/03/21 04:21:47;;;;;;;13.10;8.98;;;7.00;92.50;;;;;;5073810;28;20036;-77
2021/03/21 04:24:19;;;;;;;18.77;11.20;;;7.00;92.60;;;;;;5073579;28;20020;-78
2021/03/21 04:27:09;;;;;;;13.77;9.82;;;7.00;92.50;;;;;;5054999;28;20445;-77
2021/03/21 04:29:42;;;;;;;16.98;11.00;;;7.10;92.50;;;;;;5073139;28;20024;-77
2021/03/21 04:32:13;;;;;;;16.00;10.90;;;7.10;92.50;;;;;;5055377;28;20440;-76
2021/03/21 04:34:43;;;;;;;17.15;12.25;;;7.10;92.50;;;;;;5054668;28;20047;-76
2021/03/21 04:37:10;;;;;;;18.42;12.43;;;7.10;92.40;;;;;;5055278;28;20024;-77
2021/03/21 04:39:36;;;;;;;18.92;13.48;;;7.10;92.50;;;;;;5055229;28;20054;-77
2021/03/21 04:42:08;;;;;;;18.67;12.60;;;7.10;92.40;;;;;;5055165;28;20618;-78
2021/03/21 04:44:52;;;;;;;19.10;12.73;;;7.10;92.40;;;;;;5073135;28;20099;-77
2021/03/21 04:47:23;;;;;;;17.42;11.30;;;7.10;92.40;;;;;;5055119;28;20081;-76
2021/03/21 04:49:49;;;;;;;18.20;12.68;;;7.10;92.30;;;;;;5074090;28;20025;-77
2021/03/21 04:52:34;;;;;;;14.80;9.20;;;7.10;92.30;;;;;;5054840;28;20021;-76
2021/03/21 04:55:02;;;;;;;18.75;11.45;;;7.20;92.30;;;;;;5054813;28;20027;-76
2021/03/21 04:57:43;;;;;;;20.15;12.70;;;7.10;92.20;;;;;;5072599;28;20025;-76
2021/03/21 05:00:18;;;;;;;21.42;13.68;;;7.10;92.20;;;;;;5072812;28;20021;-76
2021/03/21 05:02:47;;;;;;;18.30;11.68;;;7.10;92.30;;;;;;5054395;28;20027;-77
2021/03/21 05:05:31;;;;;;;20.55;11.73;;;7.20;92.30;;;;;;5054847;28;20048;-78
2021/03/21 05:08:07;;;;;;;22.35;10.70;;;7.20;92.10;;;;;;5054074;28;20036;-77
2021/03/21 05:10:38;;;;;;;21.90;10.65;;;7.20;92.10;;;;;;5054409;28;20066;-77
2021/03/21 05:13:19;;;;;;;19.85;11.13;;;7.20;92.10;;;;;;5054448;28;20024;-77
2021/03/21 05:15:57;;;;;;;22.25;11.30;;;7.20;92.10;;;;;;5071952;28;20515;-77
2021/03/21 05:18:31;;;;;;;23.30;12.00;;;7.20;92.20;;;;;;5054502;28;20402;-76
2021/03/21 05:21:09;;;;;;;19.08;10.73;;;7.20;92.10;;;;;;5054137;28;20020;-76
2021/03/21 05:23:44;;;;;;;19.77;11.02;;;7.20;92.00;;;;;;5072424;28;20028;-76
2021/03/21 05:26:23;;;;;;;21.80;9.73;;;7.20;92.00;;;;;;5072818;28;20024;-76
2021/03/21 05:29:07;;;;;;;23.73;9.95;;;7.20;91.90;;;;;;5054260;28;20024;-76
2021/03/21 05:31:33;;;;;;;15.50;8.75;;;7.20;91.80;;;;;;5054355;28;20530;-76
2021/03/21 05:34:00;;;;;;;14.73;7.65;;;7.20;91.70;;;;;;5087356;28;20456;-76
2021/03/21 05:36:36;;;;;;;14.40;8.05;;;7.20;91.60;;;;;;5054260;28;20368;-76
2021/03/21 05:39:28;;;;;;;17.25;7.00;;;7.20;91.50;;;;;;5072061;28;20488;-76
2021/03/21 05:41:56;;;;;;;13.18;6.82;;;7.20;91.20;;;;;;5023283;28;20081;-77
2021/03/21 05:44:57;;;;;;;16.23;7.30;;;7.20;91.10;;;;;;5053944;28;20369;-76
2021/03/21 05:47:52;;;;;;;14.75;7.45;;;7.30;91.00;;;;;;5053319;28;20070;-77
2021/03/21 05:50:36;;;;;;;11.63;4.30;;;7.30;91.00;;;;;;5054199;28;20054;-77
2021/03/21 05:53:23;;;;;;;8.90;3.50;;;7.30;91.00;;;;;;5053589;28;20119;-76
2021/03/21 05:56:00;;;;;;;12.18;4.80;;;7.30;91.10;;;;;;5053775;28;20517;-76
2021/03/21 05:58:47;;;;;;;14.43;3.88;;;7.30;90.70;;;;;;5054103;28;20411;-77
2021/03/21 06:01:23;;;;;;;7.68;2.45;;;7.30;90.40;;;;;;5054026;28;20025;-78
2021/03/21 06:04:12;;;;;;;5.57;2.00;;;7.30;90.60;;;;;;5053712;28;20031;-77
2021/03/21 06:07:04;;;;;;;7.88;2.30;;;7.30;90.60;;;;;;5071799;28;20433;-77
2021/03/21 06:09:30;;;;;;;9.95;2.30;;;7.30;90.30;;;;;;5053798;28;20074;-77
2021/03/21 06:12:05;;;;;;;10.70;2.78;;;7.30;90.30;;;;;;5053489;28;20036;-76
2021/03/21 06:14:42;;;;;;;8.38;2.85;;;7.40;90.30;;;;;;5053879;28;20051;-77
2021/03/21 06:17:37;;;;;;;14.23;2.20;;;7.40;90.20;;;;;;5053818;28;20024;-77
2021/03/21 06:20:35;;;;;;;7.43;1.75;;;7.40;90.20;;;;;;5071664;28;20024;-77
2021/03/21 06:23:16;;;;;;;9.60;2.53;;;7.30;90.40;;;;;;5071637;28;20108;-76
2021/03/21 06:25:52;;;;;;;;;;;7.40;90.20;;;;;;5054438;28;20123;-76
2021/03/21 06:28:41;;;;;;;12.45;2.53;;;7.30;90.30;;;;;;5071992;28;19923;-77
2021/03/21 06:31:35;;;;;;;6.50;1.77;;;7.30;90.20;;;;;;5047643;28;20039;-77
2021/03/21 06:34:20;;;;;;;7.10;2.50;;;7.40;90.60;;;;;;5053730;28;20512;-77
2021/03/21 06:36:55;;;;;;;7.80;1.80;;;7.40;90.60;;;;;;5073430;28;20047;-77
2021/03/21 06:39:24;;;;;;;10.70;2.33;;;7.40;90.40;;;;;;5054487;28;20506;-77
2021/03/21 06:42:12;;;;;;;6.45;2.15;;;7.40;90.50;;;;;;5053416;28;20032;-78
2021/03/21 06:45:08;;;;;;;12.95;2.63;;;7.40;90.60;;;;;;5070775;28;20119;-77
2021/03/21 06:47:42;;;;;;;10.93;2.10;;;7.40;90.60;;;;;;5053630;28;20075;-77
2021/03/21 06:50:50;;;;;;;11.43;2.10;;;7.40;90.60;;;;;;5073325;28;20055;-77
2021/03/21 06:53:48;;;;;;;13.85;2.20;;;7.40;90.70;;;;;;5053374;28;20024;-78
2021/03/21 06:56:32;;;;;;;10.88;1.98;;;7.40;90.50;;;;;;5053328;28;20020;-78
2021/03/21 06:59:21;;;;;;;9.52;1.52;;;7.40;90.40;;;;;;5074307;28;20464;-77
2021/03/21 07:02:08;;;;;;;9.50;1.70;;;7.40;90.70;;;;;;5056682;28;20497;-77
2021/03/21 07:05:11;;;;;;;11.73;2.30;;;7.40;90.80;;;;;;5056736;28;20025;-77
2021/03/21 07:08:13;;;;;;;8.15;1.67;;;7.40;90.60;;;;;;5056363;28;20016;-77
2021/03/21 07:10:47;;;;;;;9.05;1.90;;;7.40;90.50;;;;;;5074552;28;20279;-77
2021/03/21 07:13:39;;;;;;;11.20;2.67;;;7.50;90.40;;;;;;5056491;28;20024;-77
2021/03/21 07:16:29;;;;;;;10.90;1.23;;;7.50;90.20;;;;;;5033063;28;20040;-76
2021/03/21 07:19:13;;;;;;;15.27;2.70;;;7.60;89.90;;;;;;5074236;28;20024;-76
2021/03/21 07:22:06;;;;;;;10.63;1.40;;;7.50;88.40;;;;;;5056539;28;20488;-77
2021/03/21 07:24:57;;;;;;;11.70;2.40;;;7.60;90.10;;;;;;5056637;28;20506;-77
2021/03/21 07:28:00;;;;;;;10.80;1.92;;;7.60;90.00;;;;;;5056342;28;20562;-78
2021/03/21 07:30:48;;;;;;;10.43;2.25;;;7.60;88.50;;;;;;5048009;28;20112;-78
2021/03/21 07:33:19;;;;;;;14.57;1.95;;;7.60;87.80;;;;;;5056250;28;20032;-77
2021/03/21 07:35:56;;;;;;;9.07;1.35;;;7.70;88.50;;;;;;5055488;28;20024;-78
2021/03/21 07:38:27;;;;;;;11.80;1.85;;;7.70;87.90;;;;;;5056219;28;20476;-77
2021/03/21 07:41:13;;;;;;;9.07;1.77;;;7.80;88.20;;;;;;5073700;28;20089;-77
2021/03/21 07:44:00;;;;;;;9.77;1.98;;;7.80;87.60;;;;;;5055135;28;20033;-77
2021/03/21 07:46:47;;;;;;;10.48;2.20;;;7.90;87.00;;;;;;5074101;28;20165;-77
2021/03/21 07:49:32;;;;;;;15.52;2.17;;;8.00;86.60;;;;;;5073981;28;20024;-77
2021/03/21 07:52:29;;;;;;;7.15;1.58;;;8.20;86.80;;;;;;5073348;28;20496;-77
2021/03/21 07:55:16;;;;;;;12.60;2.83;;;8.30;86.90;;;;;;5055626;28;20020;-77
2021/03/21 07:58:06;;;;;;;11.52;1.98;;;8.30;85.70;;;;;;5055879;28;20422;-77
2021/03/21 08:00:32;;;;;;;;;;;8.30;83.60;;;;;;5074464;28;20103;-76
2021/03/21 08:03:19;;;;;;;13.02;3.10;;;8.40;85.30;;;;;;5055532;28;19978;-75
2021/03/21 08:05:44;;;;;;;8.52;2.25;;;8.40;83.40;;;;;;5055340;28;20017;-78
2021/03/21 08:08:15;;;;;;;13.45;2.75;;;8.30;82.40;;;;;;5073571;28;20070;-78
2021/03/21 08:10:41;;;;;;;;;;;8.30;82.60;;;;;;5055622;28;20456;-77
2021/03/21 08:13:11;;;;;;;13.63;2.25;;;8.40;84.20;;;;;;5073557;28;19969;-78
2021/03/21 08:15:38;;;;;;;16.40;2.50;;;8.50;83.40;;;;;;5055543;28;20024;-77
2021/03/21 08:18:07;;;;;;;16.02;2.35;;;8.50;82.00;;;;;;5055143;28;20029;-77
2021/03/21 08:20:47;;;;;;;17.30;2.08;;;8.50;83.30;;;;;;5073068;28;20027;-78
2021/03/21 08:23:25;;;;;;;23.60;3.83;;;8.50;83.00;;;;;;5055367;28;20031;-78
2021/03/21 08:25:53;;;;;;;14.15;3.13;;;8.50;82.10;;;;;;5073011;28;20338;-77
2021/03/21 08:28:23;;;;;;;10.15;2.20;;;8.50;78.80;;;;;;5073720;28;20036;-76
2021/03/21 08:30:52;;;;;;;;;;;8.50;81.80;;;;;;5055317;28;20059;-77
2021/03/21 08:33:30;;;;;;;16.50;2.50;;;8.60;83.90;;;;;;5055357;28;19900;-76
2021/03/21 08:36:19;;;;;;;11.30;1.98;;;8.60;85.30;;;;;;5054770;28;20040;-77
2021/03/21 08:39:00;;;;;;;8.10;1.88;;;8.60;86.20;;;;;;5072638;28;20078;-78
2021/03/21 08:41:28;;;;;;;9.63;2.53;;;8.70;87.50;;;;;;5076516;28;20055;-78
2021/03/21 08:44:05;;;;;;;10.02;2.88;;;8.70;87.30;;;;;;5089101;28;20020;-78
2021/03/21 08:46:32;;;;;;;13.65;3.13;;;8.70;85.90;;;;;;5074584;28;20016;-77
2021/03/21 08:49:19;;;;;;;25.70;3.30;;;8.70;82.00;;;;;;5074620;28;20431;-78
2021/03/21 08:51:46;;;;;;;32.15;4.60;;;8.80;76.80;;;;;;5074543;28;20024;-78
2021/03/21 08:54:38;;;;;;;18.98;3.45;;;8.70;79.60;;;;;;5074919;28;20020;-78
2021/03/21 08:57:26;;;;;;;15.18;3.63;;;8.70;77.70;;;;;;5074652;28;20047;-77
2021/03/21 08:59:52;;;;;;;26.75;5.15;;;8.80;81.50;;;;;;5092462;28;20031;-78
2021/03/21 09:02:19;;;;;;;21.65;4.35;;;8.80;78.30;;;;;;5074695;28;20386;-78
2021/03/21 09:05:02;;;;;;;25.08;4.18;;;8.80;77.70;;;;;;5092664;28;20030;-79
2021/03/21 09:07:31;;;;;;;23.90;3.72;;;8.80;78.00;;;;;;5074561;28;20030;-78
2021/03/21 09:10:11;;;;;;;19.67;3.75;;;9.00;80.40;;;;;;5074310;28;20023;-79
2021/03/21 09:12:55;;;;;;;22.23;3.75;;;9.30;78.00;;;;;;5074391;28;20067;-78
2021/03/21 09:15:33;;;;;;;24.00;4.63;;;9.50;79.30;;;;;;5074729;28;20066;-78
2021/03/21 09:18:04;;;;;;;23.60;4.18;;;9.80;79.60;;;;;;5074373;28;20067;-78
2021/03/21 09:20:31;;;;;;;24.00;3.85;;;10.10;76.50;;;;;;5092606;28;20016;-77
2021/03/21 09:22:57;;;;;;;23.77;3.78;;;10.20;73.70;;;;;;5091937;28;20031;-78
2021/03/21 09:25:28;;;;;;;21.55;2.95;;;10.20;73.40;;;;;;5075448;28;20024;-78
2021/03/21 09:27:55;;;;;;;17.65;3.08;;;10.40;74.00;;;;;;5077566;28;20090;-77
2021/03/21 09:30:38;;;;;;;20.52;3.55;;;10.50;71.90;;;;;;5075860;28;20122;-76
2021/03/21 09:33:37;;;;;;;29.55;5.45;;;10.60;74.80;;;;;;5074901;28;20028;-78
2021/03/21 09:36:35;;;;;;;19.58;4.05;;;10.70;68.90;;;;;;5071598;28;20035;-79
2021/03/21 09:39:20;;;;;;;13.65;2.90;;;10.80;69.60;;;;;;5041654;28;20024;-78
2021/03/21 09:41:51;;;;;;;17.63;4.03;;;11.00;73.60;;;;;;5077717;28;20345;-78
2021/03/21 09:44:40;;;;;;;16.73;3.70;;;11.20;71.80;;;;;;5075790;28;20103;-78
2021/03/21 09:47:23;;;;;;;16.60;3.55;;;11.40;73.60;;;;;;5074392;28;20032;-77
2021/03/21 09:50:27;;;;;;;25.77;5.32;;;11.60;68.20;;;;;;5092215;28;20038;-77
2021/03/21 09:53:11;;;;;;;22.80;4.10;;;11.60;68.40;;;;;;5033484;28;20047;-78
2021/03/21 09:55:47;;;;;;;20.42;3.83;;;11.70;68.20;;;;;;5092742;28;20012;-78
2021/03/21 09:58:24;;;;;;;17.83;3.25;;;11.80;72.00;;;;;;5092631;28;20051;-79
2021/03/21 10:00:58;;;;;;;18.92;3.72;;;11.90;70.60;;;;;;5073754;28;20376;-78
2021/03/21 10:03:28;;;;;;;15.25;3.97;;;11.90;69.80;;;;;;5074142;28;20082;-78
2021/03/21 10:06:09;;;;;;;22.55;4.65;;;11.80;68.10;;;;;;5074062;28;20452;-78
2021/03/21 10:09:04;;;;;;;14.32;2.92;;;11.80;66.40;;;;;;5073993;28;20102;-79
2021/03/21 10:12:04;;;;;;;28.05;5.22;;;11.90;70.10;;;;;;5063053;28;20032;-78
2021/03/21 10:14:29;;;;;;;18.05;4.10;;;11.80;62.50;;;;;;5053953;28;20070;-78
2021/03/21 10:17:00;;;;;;;21.60;4.65;;;11.80;67.70;;;;;;5073758;28;20403;-79
2021/03/21 10:19:47;;;;;;;14.35;3.75;;;11.90;64.40;;;;;;5074032;28;20023;-78
2021/03/21 10:22:28;;;;;;;22.77;4.03;;;11.80;65.80;;;;;;5074050;28;20062;-79
2021/03/21 10:25:21;;;;;;;20.15;3.50;;;11.80;65.50;;;;;;5073916;28;20031;-79
2021/03/21 10:27:49;;;;;;;17.05;3.92;;;12.00;68.40;;;;;;5091980;28;20020;-79
2021/03/21 10:30:28;;;;;;;19.88;4.75;;;11.90;67.10;;;;;;5092322;28;20020;-79
2021/03/21 10:33:00;;;;;;;24.02;3.92;;;12.10;68.70;;;;;;5075335;28;20460;-77
2021/03/21 10:35:26;;;;;;;25.77;4.93;;;12.20;66.30;;;;;;5064794;28;20123;-78
2021/03/21 10:37:57;;;;;;;32.05;5.13;;;12.30;61.00;;;;;;5075312;28;20177;-79
2021/03/21 10:40:23;;;;;;;19.60;4.70;;;12.20;61.80;;;;;;5057704;28;20021;-78
2021/03/21 10:43:05;;;;;;;20.33;4.53;;;12.00;64.00;;;;;;5057729;28;20125;-75
2021/03/21 10:45:33;;;;;;;30.08;5.93;;;11.90;64.00;;;;;;5075878;28;20017;-77
2021/03/21 10:48:04;;;;;;;32.03;5.03;;;11.60;61.40;;;;;;5057408;28;20050;-76
2021/03/21 10:50:29;;;;;;;27.58;4.32;;;11.10;64.30;;;;;;5057454;28;20017;-77
2021/03/21 10:53:08;;;;;;;17.00;3.28;;;10.90;68.20;;;;;;5074649;28;20029;-77
2021/03/21 10:55:35;;;;;;;18.80;4.85;;;10.80;75.90;;;;;;5057046;28;20021;-76
2021/03/21 10:58:21;;;;;;;21.83;4.78;;;10.80;74.40;;;;;;5074208;28;20021;-78
2021/03/21 11:01:18;;;;;;;20.42;4.70;;;10.80;70.50;;;;;;5056771;28;20023;-77
2021/03/21 11:03:51;;;;;;;23.02;5.15;;;10.80;69.00;;;;;;5057099;28;20020;-77
2021/03/21 11:06:19;;;;;;;29.42;5.68;;;10.80;69.40;;;;;;5056874;28;20166;-77
2021/03/21 11:08:46;;;;;;;20.13;4.78;;;10.70;64.60;;;;;;5056761;28;20063;-77
2021/03/21 11:11:17;;;;;;;22.80;3.78;;;10.70;73.30;;;;;;5074157;28;20138;-77
2021/03/21 11:13:44;;;;;;;21.00;4.00;;;10.60;71.80;;;;;;5056588;28;20027;-76
2021/03/21 11:16:13;;;;;;;23.77;4.20;;;10.60;78.70;;;;;;5056450;28;20035;-76
2021/03/21 11:18:40;;;;;;;20.40;3.92;;;10.60;73.70;;;;;;5074455;28;20062;-76
2021/03/21 11:21:11;;;;;;;23.55;3.75;;;10.50;75.20;;;;;;5056246;28;20020;-76
2021/03/21 11:23:57;;;;;;;15.90;3.42;;;10.50;81.90;;;;;;5056562;28;20028;-76
2021/03/21 11:26:25;;;;;;;24.00;3.80;;;10.60;81.70;;;;;;5074593;28;20017;-76
2021/03/21 11:29:25;;;;;;;26.77;4.15;;;10.90;81.50;;;;;;5056384;28;20448;-76
2021/03/21 11:31:54;;;;;;;17.17;4.00;;;11.10;73.10;;;;;;5050331;28;20040;-77
2021/03/21 11:34:24;;;;;;;27.15;4.25;;;11.20;72.50;;;;;;5074403;28;20163;-77
2021/03/21 11:37:06;;;;;;;30.75;4.53;;;11.20;72.70;;;;;;5056294;28;20012;-76
2021/03/21 11:39:44;;;;;;;24.88;5.43;;;11.20;77.10;;;;;;5056394;28;20028;-77
2021/03/21 11:42:37;;;;;;;21.38;3.97;;;11.20;72.80;;;;;;5055554;28;20035;-78
2021/03/21 11:45:31;;;;;;;20.52;5.15;;;11.00;76.10;;;;;;5054836;28;20103;-76
2021/03/21 11:48:33;;;;;;;19.27;3.58;;;10.90;70.50;;;;;;5071094;28;20441;-77
2021/03/21 11:51:00;;;;;;;18.20;4.95;;;10.90;80.80;;;;;;5068643;28;20036;-77
2021/03/21 11:53:31;;;;;;;18.67;3.97;;;10.90;84.10;;;;;;5056181;28;20017;-78
2021/03/21 11:56:05;;;;;;;16.27;3.40;;;11.10;81.80;;;;;;5073977;28;20017;-76
2021/03/21 11:58:44;;;;;;;15.85;3.72;;;11.20;84.80;;;;;;5056037;28;20216;-77
2021/03/21 12:01:16;;;;;;;15.77;3.67;;;11.30;81.60;;;;;;5055669;28;20113;-78
2021/03/21 12:04:09;;;;;;;19.63;3.50;;;11.40;80.80;;;;;;5056037;28;20078;-77
2021/03/21 12:06:48;;;;;;;30.58;4.60;;;11.60;82.20;;;;;;5052423;28;20024;-77
2021/03/21 12:09:46;;;;;;;31.67;5.18;;;11.70;79.90;;;;;;5055345;28;20103;-78
2021/03/21 12:12:43;;;;;;;18.77;4.03;;;11.70;76.70;;;;;;5055635;28;20021;-78
2021/03/21 12:15:23;;;;;;;34.03;7.40;;;11.50;75.40;;;;;;5063253;28;20016;-76
2021/03/21 12:18:00;;;;;;;21.25;7.97;;;11.30;60.70;;;;;;5084131;28;20095;-74
2021/03/21 12:20:40;;;;;;;28.58;8.65;;;11.10;61.60;;;;;;5093392;28;20405;-73
2021/03/21 12:23:06;;;;;;;35.28;5.68;;;10.90;64.50;;;;;;5075247;28;20034;-73
2021/03/21 12:25:35;;;;;;;30.45;5.93;;;10.80;72.30;;;;;;5075526;28;20019;-73
2021/03/21 12:28:27;;;;;;;24.80;6.28;;;10.70;71.00;;;;;;5093316;28;20024;-71
2021/03/21 12:30:57;;;;;;;20.38;6.05;;;10.70;76.90;;;;;;5075372;28;20106;-72
2021/03/21 12:33:26;;;;;;;24.85;5.13;;;10.70;72.30;;;;;;5093540;28;20027;-73
2021/03/21 12:36:10;;;;;;;20.73;5.25;;;10.70;77.70;;;;;;5076544;28;20024;-73
2021/03/21 12:38:44;;;;;;;36.17;10.05;;;10.80;77.10;;;;;;5073120;28;20436;-72
2021/03/21 12:41:32;;;;;;;32.85;9.55;;;10.80;77.70;;;;;;5072722;28;20028;-73
2021/03/21 12:44:32;;;;;;;25.73;5.90;;;10.70;76.30;;;;;;5072856;28;20349;-73
2021/03/21 12:47:16;;;;;;;23.05;5.47;;;10.50;80.10;;;;;;5072722;28;20017;-72
2021/03/21 12:49:50;;;;;;;29.05;5.93;;;10.30;74.20;;;;;;5072970;28;20498;-72
2021/03/21 12:52:35;;;;;;;22.08;5.07;;;10.30;71.20;;;;;;5054828;28;20024;-72
2021/03/21 12:55:01;;;;;;;25.38;4.97;;;10.20;70.50;;;;;;5054305;28;20035;-74
2021/03/21 12:57:27;;;;;;;21.40;4.25;;;10.20;71.90;;;;;;5054821;28;20020;-73
2021/03/21 12:59:53;;;;;;;20.67;3.58;;;10.20;79.20;;;;;;5072791;28;20043;-73
2021/03/21 13:02:34;;;;;;;21.55;4.65;;;10.30;81.20;;;;;;5054225;28;20060;-73
2021/03/21 13:05:03;;;;;;;21.75;4.80;;;10.30;79.80;;;;;;5054365;28;20158;-72
2021/03/21 13:07:30;;;;;;;27.17;5.15;;;10.40;77.00;;;;;;5072353;28;20032;-73
2021/03/21 13:09:57;;;;;;;25.48;4.47;;;10.40;74.60;;;;;;5070973;28;20027;-73
2021/03/21 13:12:24;;;;;;;26.75;4.68;;;10.50;73.50;;;;;;5092251;28;20030;-73
2021/03/21 13:14:51;;;;;;;26.73;4.80;;;10.60;81.00;;;;;;5092913;28;20103;-73
2021/03/21 13:17:18;;;;;;;19.92;4.53;;;10.60;77.40;;;;;;5092352;28;20400;-73
2021/03/21 13:19:44;;;;;;;21.25;5.40;;;10.60;75.80;;;;;;5074450;28;20024;-73
2021/03/21 13:22:10;;;;;;;19.30;3.85;;;10.70;70.90;;;;;;5092472;28;20035;-73
2021/03/21 13:24:36;;;;;;;30.67;5.38;;;10.70;71.40;;;;;;5074511;28;20023;-73
2021/03/21 13:27:03;;;;;;;22.88;5.25;;;10.70;72.00;;;;;;5073931;28;20016;-73
2021/03/21 13:29:29;;;;;;;27.55;5.10;;;10.70;74.00;;;;;;5073869;28;20061;-72
2021/03/21 13:31:55;;;;;;;32.97;5.68;;;10.70;72.30;;;;;;5092195;28;20035;-73
2021/03/21 13:34:22;;;;;;;27.85;4.72;;;10.60;76.50;;;;;;5069786;28;20330;-73